sensor_id;sensor_type;location;lat;lon;timestamp;temperature;humidity
51486;DHT22;37565;51.352;6.412;2022-10-16T00:01:32;17.90;99.90
51486;DHT22;37565;51.352;6.412;2022-10-16T00:04:02;18.00;99.90
51486;DHT22;37565;51.352;6.412;2022-10-16T00:06:31;18.00;99.90
51486;DHT22;37565;51.352;6.412;2022-10-16T00:08:59;18.00;99.90
51486;DHT22;37565;51.352;6.412;2022-10-16T00:11:28;18.00;99.90
51486;DHT22;37565;51.352;6.412;2022-10-16T00:13:58;18.00;99.90
51486;DHT22;37565;51.352;6.412;2022-10-16T00:16:28;17.90;99.90
51486;DHT22;37565;51.352;6.412;2022-10-16T00:18:56;17.90;99.90
51486;DHT22;37565;51.352;6.412;2022-10-16T00:21:27;17.90;99.90
51486;DHT22;37565;51.352;6.412;2022-10-16T00:23:57;17.90;99.90
51486;DHT22;37565;51.352;6.412;2022-10-16T00:26:27;17.90;99.90
51486;DHT22;37565;51.352;6.412;2022-10-16T00:28:55;17.90;99.90
51486;DHT22;37565;51.352;6.412;2022-10-16T00:31:23;18.00;99.90
51486;DHT22;37565;51.352;6.412;2022-10-16T00:33:52;18.00;99.90
51486;DHT22;37565;51.352;6.412;2022-10-16T00:36:22;17.90;99.90
51486;DHT22;37565;51.352;6.412;2022-10-16T00:38:53;18.00;99.90
51486;DHT22;37565;51.352;6.412;2022-10-16T00:41:23;17.90;99.90
51486;DHT22;37565;51.352;6.412;2022-10-16T00:43:53;17.90;99.90
51486;DHT22;37565;51.352;6.412;2022-10-16T00:46:23;18.00;99.90
51486;DHT22;37565;51.352;6.412;2022-10-16T00:48:57;17.90;99.90
51486;DHT22;37565;51.352;6.412;2022-10-16T00:51:32;17.90;99.90
51486;DHT22;37565;51.352;6.412;2022-10-16T00:54:06;18.00;99.90
51486;DHT22;37565;51.352;6.412;2022-10-16T00:56:35;18.00;99.90
51486;DHT22;37565;51.352;6.412;2022-10-16T00:59:07;17.90;99.90
51486;DHT22;37565;51.352;6.412;2022-10-16T01:01:38;17.90;99.90
51486;DHT22;37565;51.352;6.412;2022-10-16T01:04:06;17.90;99.90
51486;DHT22;37565;51.352;6.412;2022-10-16T01:06:38;17.90;99.90
51486;DHT22;37565;51.352;6.412;2022-10-16T01:09:14;18.00;99.90
51486;DHT22;37565;51.352;6.412;2022-10-16T01:11:54;17.90;99.90
51486;DHT22;37565;51.352;6.412;2022-10-16T01:14:30;18.00;99.90
51486;DHT22;37565;51.352;6.412;2022-10-16T01:17:05;18.00;99.90
51486;DHT22;37565;51.352;6.412;2022-10-16T01:19:50;17.90;99.90
51486;DHT22;37565;51.352;6.412;2022-10-16T01:22:34;17.90;99.90
51486;DHT22;37565;51.352;6.412;2022-10-16T01:25:08;17.90;99.90
51486;DHT22;37565;51.352;6.412;2022-10-16T01:27:40;17.90;99.90
51486;DHT22;37565;51.352;6.412;2022-10-16T01:30:12;17.90;99.90
51486;DHT22;37565;51.352;6.412;2022-10-16T01:32:43;17.90;99.90
51486;DHT22;37565;51.352;6.412;2022-10-16T01:35:18;17.90;99.90
51486;DHT22;37565;51.352;6.412;2022-10-16T01:37:51;17.90;99.90
51486;DHT22;37565;51.352;6.412;2022-10-16T01:40:21;17.90;99.90
51486;DHT22;37565;51.352;6.412;2022-10-16T01:42:56;17.90;99.90
51486;DHT22;37565;51.352;6.412;2022-10-16T01:45:28;17.90;99.90
51486;DHT22;37565;51.352;6.412;2022-10-16T01:48:00;17.90;99.90
51486;DHT22;37565;51.352;6.412;2022-10-16T01:50:31;17.90;99.90
51486;DHT22;37565;51.352;6.412;2022-10-16T01:53:02;17.90;99.90
51486;DHT22;37565;51.352;6.412;2022-10-16T01:55:33;17.80;99.90
51486;DHT22;37565;51.352;6.412;2022-10-16T01:58:07;17.90;99.90
51486;DHT22;37565;51.352;6.412;2022-10-16T02:00:37;17.80;99.90
51486;DHT22;37565;51.352;6.412;2022-10-16T02:03:07;17.90;99.90
51486;DHT22;37565;51.352;6.412;2022-10-16T02:05:41;17.90;99.90
51486;DHT22;37565;51.352;6.412;2022-10-16T02:08:10;17.90;99.90
51486;DHT22;37565;51.352;6.412;2022-10-16T02:10:39;17.80;99.90
51486;DHT22;37565;51.352;6.412;2022-10-16T02:13:10;17.90;99.90
51486;DHT22;37565;51.352;6.412;2022-10-16T02:15:39;17.90;99.90
51486;DHT22;37565;51.352;6.412;2022-10-16T02:18:09;17.90;99.90
51486;DHT22;37565;51.352;6.412;2022-10-16T02:20:50;17.90;99.90
51486;DHT22;37565;51.352;6.412;2022-10-16T02:23:23;17.80;99.90
51486;DHT22;37565;51.352;6.412;2022-10-16T02:25:52;17.80;99.90
51486;DHT22;37565;51.352;6.412;2022-10-16T02:28:26;17.90;99.90
51486;DHT22;37565;51.352;6.412;2022-10-16T02:30:58;17.90;99.90
51486;DHT22;37565;51.352;6.412;2022-10-16T02:33:29;17.80;99.90
51486;DHT22;37565;51.352;6.412;2022-10-16T02:35:58;17.80;99.90
51486;DHT22;37565;51.352;6.412;2022-10-16T02:38:27;17.90;99.90
51486;DHT22;37565;51.352;6.412;2022-10-16T02:40:57;17.80;99.90
51486;DHT22;37565;51.352;6.412;2022-10-16T02:43:26;17.80;99.90
51486;DHT22;37565;51.352;6.412;2022-10-16T02:45:54;17.80;99.90
51486;DHT22;37565;51.352;6.412;2022-10-16T02:48:22;17.80;99.90
51486;DHT22;37565;51.352;6.412;2022-10-16T02:50:50;17.80;99.90
51486;DHT22;37565;51.352;6.412;2022-10-16T02:53:18;17.80;99.90
51486;DHT22;37565;51.352;6.412;2022-10-16T02:55:46;17.90;99.90
51486;DHT22;37565;51.352;6.412;2022-10-16T02:58:14;17.80;99.90
51486;DHT22;37565;51.352;6.412;2022-10-16T03:00:43;17.80;99.90
51486;DHT22;37565;51.352;6.412;2022-10-16T03:03:12;17.80;99.90
51486;DHT22;37565;51.352;6.412;2022-10-16T03:05:40;17.80;99.90
51486;DHT22;37565;51.352;6.412;2022-10-16T03:08:08;17.80;99.90
51486;DHT22;37565;51.352;6.412;2022-10-16T03:10:36;17.80;99.90
51486;DHT22;37565;51.352;6.412;2022-10-16T03:13:03;17.80;99.90
51486;DHT22;37565;51.352;6.412;2022-10-16T03:15:31;17.80;99.90
51486;DHT22;37565;51.352;6.412;2022-10-16T03:18:01;17.80;99.90
51486;DHT22;37565;51.352;6.412;2022-10-16T03:20:29;17.80;99.90
51486;DHT22;37565;51.352;6.412;2022-10-16T03:22:56;17.80;99.90
51486;DHT22;37565;51.352;6.412;2022-10-16T03:25:24;17.80;99.90
51486;DHT22;37565;51.352;6.412;2022-10-16T03:27:52;17.80;99.90
51486;DHT22;37565;51.352;6.412;2022-10-16T03:30:20;17.80;99.90
51486;DHT22;37565;51.352;6.412;2022-10-16T03:32:48;17.80;99.90
51486;DHT22;37565;51.352;6.412;2022-10-16T03:35:22;17.80;99.90
51486;DHT22;37565;51.352;6.412;2022-10-16T03:37:50;17.80;99.90
51486;DHT22;37565;51.352;6.412;2022-10-16T03:40:18;17.80;99.90
51486;DHT22;37565;51.352;6.412;2022-10-16T03:42:46;17.80;99.90
51486;DHT22;37565;51.352;6.412;2022-10-16T03:45:14;17.80;99.90
51486;DHT22;37565;51.352;6.412;2022-10-16T03:47:42;17.80;99.90
51486;DHT22;37565;51.352;6.412;2022-10-16T03:50:10;17.80;99.90
51486;DHT22;37565;51.352;6.412;2022-10-16T03:52:39;17.80;99.90
51486;DHT22;37565;51.352;6.412;2022-10-16T03:55:08;17.80;99.90
51486;DHT22;37565;51.352;6.412;2022-10-16T03:57:36;17.80;99.90
51486;DHT22;37565;51.352;6.412;2022-10-16T04:00:04;17.80;99.90
51486;DHT22;37565;51.352;6.412;2022-10-16T04:02:32;17.80;99.90
51486;DHT22;37565;51.352;6.412;2022-10-16T04:05:00;17.80;99.90
51486;DHT22;37565;51.352;6.412;2022-10-16T04:07:28;17.80;99.90
51486;DHT22;37565;51.352;6.412;2022-10-16T04:09:58;17.80;99.90
51486;DHT22;37565;51.352;6.412;2022-10-16T04:12:26;17.80;99.90
51486;DHT22;37565;51.352;6.412;2022-10-16T04:14:54;17.80;99.90
51486;DHT22;37565;51.352;6.412;2022-10-16T04:17:22;17.80;99.90
51486;DHT22;37565;51.352;6.412;2022-10-16T04:19:51;17.80;99.90
51486;DHT22;37565;51.352;6.412;2022-10-16T04:22:19;17.80;99.90
51486;DHT22;37565;51.352;6.412;2022-10-16T04:24:47;17.80;99.90
51486;DHT22;37565;51.352;6.412;2022-10-16T04:27:16;17.80;99.90
51486;DHT22;37565;51.352;6.412;2022-10-16T04:29:44;17.80;99.90
51486;DHT22;37565;51.352;6.412;2022-10-16T04:32:12;17.80;99.90
51486;DHT22;37565;51.352;6.412;2022-10-16T04:34:40;17.80;99.90
51486;DHT22;37565;51.352;6.412;2022-10-16T04:37:08;17.80;99.90
51486;DHT22;37565;51.352;6.412;2022-10-16T04:39:36;17.70;99.90
51486;DHT22;37565;51.352;6.412;2022-10-16T04:42:03;17.80;99.90
51486;DHT22;37565;51.352;6.412;2022-10-16T04:44:33;17.80;99.90
51486;DHT22;37565;51.352;6.412;2022-10-16T04:47:01;17.80;99.90
51486;DHT22;37565;51.352;6.412;2022-10-16T04:49:29;17.80;99.90
51486;DHT22;37565;51.352;6.412;2022-10-16T04:51:56;17.70;99.90
51486;DHT22;37565;51.352;6.412;2022-10-16T04:54:24;17.70;99.90
51486;DHT22;37565;51.352;6.412;2022-10-16T04:56:52;17.80;99.90
51486;DHT22;37565;51.352;6.412;2022-10-16T04:59:21;17.70;99.90
51486;DHT22;37565;51.352;6.412;2022-10-16T05:01:50;17.70;99.90
51486;DHT22;37565;51.352;6.412;2022-10-16T05:04:18;17.70;99.90
51486;DHT22;37565;51.352;6.412;2022-10-16T05:06:47;17.70;99.90
51486;DHT22;37565;51.352;6.412;2022-10-16T05:09:15;17.80;99.90
51486;DHT22;37565;51.352;6.412;2022-10-16T05:11:43;17.70;99.90
51486;DHT22;37565;51.352;6.412;2022-10-16T05:14:11;17.70;99.90
51486;DHT22;37565;51.352;6.412;2022-10-16T05:16:39;17.70;99.90
51486;DHT22;37565;51.352;6.412;2022-10-16T05:19:09;17.80;99.90
51486;DHT22;37565;51.352;6.412;2022-10-16T05:21:53;17.70;99.90
51486;DHT22;37565;51.352;6.412;2022-10-16T05:24:21;17.70;99.90
51486;DHT22;37565;51.352;6.412;2022-10-16T05:26:50;17.70;99.90
51486;DHT22;37565;51.352;6.412;2022-10-16T05:29:18;17.70;99.90
51486;DHT22;37565;51.352;6.412;2022-10-16T05:31:46;17.70;99.90
51486;DHT22;37565;51.352;6.412;2022-10-16T05:34:15;17.70;99.90
51486;DHT22;37565;51.352;6.412;2022-10-16T05:36:43;17.70;99.90
51486;DHT22;37565;51.352;6.412;2022-10-16T05:39:13;17.70;99.90
51486;DHT22;37565;51.352;6.412;2022-10-16T05:41:41;17.70;99.90
51486;DHT22;37565;51.352;6.412;2022-10-16T05:44:09;17.70;99.90
51486;DHT22;37565;51.352;6.412;2022-10-16T05:46:37;17.70;99.90
51486;DHT22;37565;51.352;6.412;2022-10-16T05:49:05;17.70;99.90
51486;DHT22;37565;51.352;6.412;2022-10-16T05:51:34;17.70;99.90
51486;DHT22;37565;51.352;6.412;2022-10-16T05:54:02;17.70;99.90
51486;DHT22;37565;51.352;6.412;2022-10-16T05:56:30;17.70;99.90
51486;DHT22;37565;51.352;6.412;2022-10-16T05:58:58;17.70;99.90
51486;DHT22;37565;51.352;6.412;2022-10-16T06:01:26;17.70;99.90
51486;DHT22;37565;51.352;6.412;2022-10-16T06:03:54;17.70;99.90
51486;DHT22;37565;51.352;6.412;2022-10-16T06:06:24;17.70;99.90
51486;DHT22;37565;51.352;6.412;2022-10-16T06:08:55;17.70;99.90
51486;DHT22;37565;51.352;6.412;2022-10-16T06:11:25;17.70;99.90
51486;DHT22;37565;51.352;6.412;2022-10-16T06:13:54;17.70;99.90
51486;DHT22;37565;51.352;6.412;2022-10-16T06:16:24;17.70;99.90
51486;DHT22;37565;51.352;6.412;2022-10-16T06:18:54;17.70;99.90
51486;DHT22;37565;51.352;6.412;2022-10-16T06:21:24;17.70;99.90
51486;DHT22;37565;51.352;6.412;2022-10-16T06:23:54;17.70;99.90
51486;DHT22;37565;51.352;6.412;2022-10-16T06:26:24;17.70;99.90
51486;DHT22;37565;51.352;6.412;2022-10-16T06:28:54;17.70;99.90
51486;DHT22;37565;51.352;6.412;2022-10-16T06:31:22;17.70;99.90
51486;DHT22;37565;51.352;6.412;2022-10-16T06:33:54;17.70;99.90
51486;DHT22;37565;51.352;6.412;2022-10-16T06:36:23;17.70;99.90
51486;DHT22;37565;51.352;6.412;2022-10-16T06:38:51;17.70;99.90
51486;DHT22;37565;51.352;6.412;2022-10-16T06:41:22;17.60;99.90
51486;DHT22;37565;51.352;6.412;2022-10-16T06:43:51;17.70;99.90
51486;DHT22;37565;51.352;6.412;2022-10-16T06:46:21;17.70;99.90
51486;DHT22;37565;51.352;6.412;2022-10-16T06:48:50;17.70;99.90
51486;DHT22;37565;51.352;6.412;2022-10-16T06:51:18;17.70;99.90
51486;DHT22;37565;51.352;6.412;2022-10-16T06:53:48;17.70;99.90
51486;DHT22;37565;51.352;6.412;2022-10-16T06:56:33;17.70;99.90
51486;DHT22;37565;51.352;6.412;2022-10-16T06:59:02;17.70;99.90
51486;DHT22;37565;51.352;6.412;2022-10-16T07:01:30;17.70;99.90
51486;DHT22;37565;51.352;6.412;2022-10-16T07:04:00;17.70;99.90
51486;DHT22;37565;51.352;6.412;2022-10-16T07:06:31;17.70;99.90
51486;DHT22;37565;51.352;6.412;2022-10-16T07:09:02;17.70;99.90
51486;DHT22;37565;51.352;6.412;2022-10-16T07:11:30;17.70;99.90
51486;DHT22;37565;51.352;6.412;2022-10-16T07:14:00;17.70;99.90
51486;DHT22;37565;51.352;6.412;2022-10-16T07:16:29;17.70;99.90
51486;DHT22;37565;51.352;6.412;2022-10-16T07:18:59;17.70;99.90
51486;DHT22;37565;51.352;6.412;2022-10-16T07:21:28;17.70;99.90
51486;DHT22;37565;51.352;6.412;2022-10-16T07:23:58;17.70;99.90
51486;DHT22;37565;51.352;6.412;2022-10-16T07:26:29;17.70;99.90
51486;DHT22;37565;51.352;6.412;2022-10-16T07:28:58;17.70;99.90
51486;DHT22;37565;51.352;6.412;2022-10-16T07:31:28;17.70;99.90
51486;DHT22;37565;51.352;6.412;2022-10-16T07:33:58;17.70;99.90
51486;DHT22;37565;51.352;6.412;2022-10-16T07:36:26;17.70;99.90
51486;DHT22;37565;51.352;6.412;2022-10-16T07:38:55;17.70;99.90
51486;DHT22;37565;51.352;6.412;2022-10-16T07:41:26;17.70;99.90
51486;DHT22;37565;51.352;6.412;2022-10-16T07:43:54;17.70;99.90
51486;DHT22;37565;51.352;6.412;2022-10-16T07:46:23;17.70;99.90
51486;DHT22;37565;51.352;6.412;2022-10-16T07:48:53;17.60;99.90
51486;DHT22;37565;51.352;6.412;2022-10-16T07:51:22;17.70;99.90
51486;DHT22;37565;51.352;6.412;2022-10-16T07:53:50;17.70;99.90
51486;DHT22;37565;51.352;6.412;2022-10-16T07:56:19;17.70;99.90
51486;DHT22;37565;51.352;6.412;2022-10-16T07:58:49;17.70;99.90
51486;DHT22;37565;51.352;6.412;2022-10-16T08:01:18;17.70;99.90
51486;DHT22;37565;51.352;6.412;2022-10-16T08:03:47;17.70;99.90
51486;DHT22;37565;51.352;6.412;2022-10-16T08:06:18;17.70;99.90
51486;DHT22;37565;51.352;6.412;2022-10-16T08:08:52;17.70;99.90
51486;DHT22;37565;51.352;6.412;2022-10-16T08:11:20;17.70;99.90
51486;DHT22;37565;51.352;6.412;2022-10-16T08:13:49;17.70;99.90
51486;DHT22;37565;51.352;6.412;2022-10-16T08:16:17;17.80;99.90
51486;DHT22;37565;51.352;6.412;2022-10-16T08:18:45;17.80;99.90
51486;DHT22;37565;51.352;6.412;2022-10-16T08:21:15;17.80;99.90
51486;DHT22;37565;51.352;6.412;2022-10-16T08:23:49;17.90;99.90
51486;DHT22;37565;51.352;6.412;2022-10-16T08:26:22;17.90;99.90
51486;DHT22;37565;51.352;6.412;2022-10-16T08:28:50;17.90;99.90
51486;DHT22;37565;51.352;6.412;2022-10-16T08:31:19;17.90;99.90
51486;DHT22;37565;51.352;6.412;2022-10-16T08:33:47;17.90;99.90
51486;DHT22;37565;51.352;6.412;2022-10-16T08:36:16;17.90;99.90
51486;DHT22;37565;51.352;6.412;2022-10-16T08:38:46;18.00;99.90
51486;DHT22;37565;51.352;6.412;2022-10-16T08:41:29;18.00;99.90
51486;DHT22;37565;51.352;6.412;2022-10-16T08:44:24;18.00;99.90
51486;DHT22;37565;51.352;6.412;2022-10-16T08:47:01;18.10;99.90
51486;DHT22;37565;51.352;6.412;2022-10-16T08:49:31;18.00;99.90
51486;DHT22;37565;51.352;6.412;2022-10-16T08:51:59;18.10;99.90
51486;DHT22;37565;51.352;6.412;2022-10-16T08:54:29;18.10;99.90
51486;DHT22;37565;51.352;6.412;2022-10-16T08:57:09;18.10;99.90
51486;DHT22;37565;51.352;6.412;2022-10-16T08:59:37;18.20;99.90
51486;DHT22;37565;51.352;6.412;2022-10-16T09:02:23;18.20;99.90
51486;DHT22;37565;51.352;6.412;2022-10-16T09:05:10;18.20;99.90
51486;DHT22;37565;51.352;6.412;2022-10-16T09:07:49;18.20;99.90
51486;DHT22;37565;51.352;6.412;2022-10-16T09:10:31;18.30;99.90
51486;DHT22;37565;51.352;6.412;2022-10-16T09:13:11;18.30;99.90
51486;DHT22;37565;51.352;6.412;2022-10-16T09:15:49;18.30;99.90
51486;DHT22;37565;51.352;6.412;2022-10-16T09:18:24;18.30;99.90
51486;DHT22;37565;51.352;6.412;2022-10-16T09:21:05;18.30;99.90
51486;DHT22;37565;51.352;6.412;2022-10-16T09:23:37;18.30;99.90
51486;DHT22;37565;51.352;6.412;2022-10-16T09:26:05;18.40;99.90
51486;DHT22;37565;51.352;6.412;2022-10-16T09:28:38;18.40;99.90
51486;DHT22;37565;51.352;6.412;2022-10-16T09:31:13;18.30;99.90
51486;DHT22;37565;51.352;6.412;2022-10-16T09:33:44;18.40;99.90
51486;DHT22;37565;51.352;6.412;2022-10-16T09:36:13;18.40;99.90
51486;DHT22;37565;51.352;6.412;2022-10-16T09:38:41;18.40;99.90
51486;DHT22;37565;51.352;6.412;2022-10-16T09:41:16;18.40;99.90
51486;DHT22;37565;51.352;6.412;2022-10-16T09:43:53;18.40;99.90
51486;DHT22;37565;51.352;6.412;2022-10-16T09:46:25;18.40;99.90
51486;DHT22;37565;51.352;6.412;2022-10-16T09:48:56;18.40;99.90
51486;DHT22;37565;51.352;6.412;2022-10-16T09:51:26;18.40;99.90
51486;DHT22;37565;51.352;6.412;2022-10-16T09:53:57;18.40;99.90
51486;DHT22;37565;51.352;6.412;2022-10-16T09:56:27;18.40;99.90
51486;DHT22;37565;51.352;6.412;2022-10-16T09:58:58;18.40;99.90
51486;DHT22;37565;51.352;6.412;2022-10-16T10:01:30;18.40;99.90
51486;DHT22;37565;51.352;6.412;2022-10-16T10:03:59;18.40;99.90
51486;DHT22;37565;51.352;6.412;2022-10-16T10:06:31;18.30;99.90
51486;DHT22;37565;51.352;6.412;2022-10-16T10:09:04;18.40;99.90
51486;DHT22;37565;51.352;6.412;2022-10-16T10:11:42;18.30;99.90
51486;DHT22;37565;51.352;6.412;2022-10-16T10:14:22;18.30;99.90
51486;DHT22;37565;51.352;6.412;2022-10-16T10:16:51;18.20;99.90
51486;DHT22;37565;51.352;6.412;2022-10-16T10:19:21;18.20;99.90
51486;DHT22;37565;51.352;6.412;2022-10-16T10:21:53;18.20;99.90
51486;DHT22;37565;51.352;6.412;2022-10-16T10:24:21;18.20;99.90
51486;DHT22;37565;51.352;6.412;2022-10-16T10:26:55;18.20;99.90
51486;DHT22;37565;51.352;6.412;2022-10-16T10:29:37;18.20;99.90
51486;DHT22;37565;51.352;6.412;2022-10-16T10:32:19;18.20;99.90
51486;DHT22;37565;51.352;6.412;2022-10-16T10:35:01;18.20;99.90
51486;DHT22;37565;51.352;6.412;2022-10-16T10:37:55;18.20;99.90
51486;DHT22;37565;51.352;6.412;2022-10-16T10:40:34;18.20;99.90
51486;DHT22;37565;51.352;6.412;2022-10-16T10:43:13;18.20;99.90
51486;DHT22;37565;51.352;6.412;2022-10-16T10:45:48;18.20;99.90
51486;DHT22;37565;51.352;6.412;2022-10-16T10:48:24;18.20;99.90
51486;DHT22;37565;51.352;6.412;2022-10-16T10:51:02;18.20;99.90
51486;DHT22;37565;51.352;6.412;2022-10-16T10:53:41;18.20;99.90
51486;DHT22;37565;51.352;6.412;2022-10-16T10:56:25;18.20;99.90
51486;DHT22;37565;51.352;6.412;2022-10-16T10:59:12;18.20;99.90
51486;DHT22;37565;51.352;6.412;2022-10-16T11:01:50;18.20;99.90
51486;DHT22;37565;51.352;6.412;2022-10-16T11:04:34;18.20;99.90
51486;DHT22;37565;51.352;6.412;2022-10-16T11:07:13;17.70;99.90
51486;DHT22;37565;51.352;6.412;2022-10-16T11:09:47;18.20;99.90
51486;DHT22;37565;51.352;6.412;2022-10-16T11:12:18;18.20;99.90
51486;DHT22;37565;51.352;6.412;2022-10-16T11:14:48;18.20;99.90
51486;DHT22;37565;51.352;6.412;2022-10-16T11:17:22;18.20;99.90
51486;DHT22;37565;51.352;6.412;2022-10-16T11:19:55;18.20;99.90
51486;DHT22;37565;51.352;6.412;2022-10-16T11:22:29;18.20;99.90
51486;DHT22;37565;51.352;6.412;2022-10-16T11:25:02;18.20;99.90
51486;DHT22;37565;51.352;6.412;2022-10-16T11:27:37;18.20;99.90
51486;DHT22;37565;51.352;6.412;2022-10-16T11:30:12;18.20;99.90
51486;DHT22;37565;51.352;6.412;2022-10-16T11:32:56;18.20;99.90
51486;DHT22;37565;51.352;6.412;2022-10-16T11:35:36;18.20;99.90
51486;DHT22;37565;51.352;6.412;2022-10-16T11:38:13;18.20;99.90
51486;DHT22;37565;51.352;6.412;2022-10-16T11:40:45;18.20;99.90
51486;DHT22;37565;51.352;6.412;2022-10-16T11:43:17;18.20;99.90
51486;DHT22;37565;51.352;6.412;2022-10-16T11:45:50;18.20;99.90
51486;DHT22;37565;51.352;6.412;2022-10-16T11:48:27;18.20;99.90
51486;DHT22;37565;51.352;6.412;2022-10-16T11:51:06;18.30;99.90
51486;DHT22;37565;51.352;6.412;2022-10-16T11:53:42;18.20;99.90
51486;DHT22;37565;51.352;6.412;2022-10-16T11:56:13;18.20;99.90
51486;DHT22;37565;51.352;6.412;2022-10-16T11:58:52;18.20;99.90
51486;DHT22;37565;51.352;6.412;2022-10-16T12:01:28;18.20;99.90
51486;DHT22;37565;51.352;6.412;2022-10-16T12:04:05;18.20;99.90
51486;DHT22;37565;51.352;6.412;2022-10-16T12:06:37;18.20;99.90
51486;DHT22;37565;51.352;6.412;2022-10-16T12:09:14;18.20;99.90
51486;DHT22;37565;51.352;6.412;2022-10-16T12:11:43;18.20;99.90
51486;DHT22;37565;51.352;6.412;2022-10-16T12:14:34;18.20;99.90
51486;DHT22;37565;51.352;6.412;2022-10-16T12:17:25;18.20;99.90
51486;DHT22;37565;51.352;6.412;2022-10-16T12:20:00;18.20;99.90
51486;DHT22;37565;51.352;6.412;2022-10-16T12:22:29;18.20;99.90
51486;DHT22;37565;51.352;6.412;2022-10-16T12:24:57;18.20;99.90
51486;DHT22;37565;51.352;6.412;2022-10-16T12:27:29;18.30;99.90
51486;DHT22;37565;51.352;6.412;2022-10-16T12:29:59;18.30;99.90
51486;DHT22;37565;51.352;6.412;2022-10-16T12:32:30;18.20;99.90
51486;DHT22;37565;51.352;6.412;2022-10-16T12:35:21;18.30;99.90
51486;DHT22;37565;51.352;6.412;2022-10-16T12:37:49;18.20;99.90
51486;DHT22;37565;51.352;6.412;2022-10-16T12:40:26;18.30;99.90
51486;DHT22;37565;51.352;6.412;2022-10-16T12:42:55;18.30;99.90
51486;DHT22;37565;51.352;6.412;2022-10-16T12:45:28;18.20;99.90
51486;DHT22;37565;51.352;6.412;2022-10-16T12:47:58;18.30;99.90
51486;DHT22;37565;51.352;6.412;2022-10-16T12:50:32;18.30;99.90
51486;DHT22;37565;51.352;6.412;2022-10-16T12:53:02;18.30;99.90
51486;DHT22;37565;51.352;6.412;2022-10-16T12:55:41;18.30;99.90
51486;DHT22;37565;51.352;6.412;2022-10-16T13:01:12;18.30;99.90
51486;DHT22;37565;51.352;6.412;2022-10-16T13:04:05;18.30;99.90
51486;DHT22;37565;51.352;6.412;2022-10-16T13:06:44;18.30;99.90
51486;DHT22;37565;51.352;6.412;2022-10-16T13:09:27;18.30;99.90
51486;DHT22;37565;51.352;6.412;2022-10-16T13:12:15;18.30;99.90
51486;DHT22;37565;51.352;6.412;2022-10-16T13:17:45;18.30;99.90
51486;DHT22;37565;51.352;6.412;2022-10-16T13:20:21;18.30;99.90
51486;DHT22;37565;51.352;6.412;2022-10-16T13:22:57;18.30;99.90
51486;DHT22;37565;51.352;6.412;2022-10-16T13:25:36;18.30;99.90
51486;DHT22;37565;51.352;6.412;2022-10-16T13:28:09;18.30;99.90
51486;DHT22;37565;51.352;6.412;2022-10-16T13:30:40;18.30;99.90
51486;DHT22;37565;51.352;6.412;2022-10-16T13:33:14;18.30;99.90
51486;DHT22;37565;51.352;6.412;2022-10-16T13:35:49;18.30;99.90
51486;DHT22;37565;51.352;6.412;2022-10-16T13:38:21;18.30;99.90
51486;DHT22;37565;51.352;6.412;2022-10-16T13:40:52;18.40;99.90
51486;DHT22;37565;51.352;6.412;2022-10-16T13:43:23;18.40;99.90
51486;DHT22;37565;51.352;6.412;2022-10-16T13:45:58;18.40;99.90
51486;DHT22;37565;51.352;6.412;2022-10-16T13:48:26;18.40;99.90
51486;DHT22;37565;51.352;6.412;2022-10-16T13:51:05;18.40;99.90
51486;DHT22;37565;51.352;6.412;2022-10-16T13:53:36;18.40;99.90
51486;DHT22;37565;51.352;6.412;2022-10-16T13:56:06;18.40;99.90
51486;DHT22;37565;51.352;6.412;2022-10-16T13:58:34;18.40;99.90
51486;DHT22;37565;51.352;6.412;2022-10-16T14:01:04;18.40;99.90
51486;DHT22;37565;51.352;6.412;2022-10-16T14:03:34;18.40;99.90
51486;DHT22;37565;51.352;6.412;2022-10-16T14:06:04;18.40;99.90
51486;DHT22;37565;51.352;6.412;2022-10-16T14:08:42;18.40;99.90
51486;DHT22;37565;51.352;6.412;2022-10-16T14:11:10;18.40;99.90
51486;DHT22;37565;51.352;6.412;2022-10-16T14:13:42;18.40;99.90
51486;DHT22;37565;51.352;6.412;2022-10-16T14:16:16;18.40;99.90
51486;DHT22;37565;51.352;6.412;2022-10-16T14:18:47;18.40;99.90
51486;DHT22;37565;51.352;6.412;2022-10-16T14:21:19;18.40;99.90
51486;DHT22;37565;51.352;6.412;2022-10-16T14:23:48;18.40;99.90
51486;DHT22;37565;51.352;6.412;2022-10-16T14:26:18;18.30;99.90
51486;DHT22;37565;51.352;6.412;2022-10-16T14:28:48;18.40;99.90
51486;DHT22;37565;51.352;6.412;2022-10-16T14:31:27;18.40;99.90
51486;DHT22;37565;51.352;6.412;2022-10-16T14:33:56;18.40;99.90
51486;DHT22;37565;51.352;6.412;2022-10-16T14:36:24;18.40;99.90
51486;DHT22;37565;51.352;6.412;2022-10-16T14:38:59;18.40;99.90
51486;DHT22;37565;51.352;6.412;2022-10-16T14:41:29;18.40;99.90
51486;DHT22;37565;51.352;6.412;2022-10-16T14:44:01;18.40;99.90
51486;DHT22;37565;51.352;6.412;2022-10-16T14:46:33;18.40;99.90
51486;DHT22;37565;51.352;6.412;2022-10-16T14:49:15;18.40;99.90
51486;DHT22;37565;51.352;6.412;2022-10-16T14:51:44;18.40;99.90
51486;DHT22;37565;51.352;6.412;2022-10-16T14:54:15;18.40;99.90
51486;DHT22;37565;51.352;6.412;2022-10-16T14:56:47;18.40;99.90
51486;DHT22;37565;51.352;6.412;2022-10-16T14:59:18;18.40;99.90
51486;DHT22;37565;51.352;6.412;2022-10-16T15:01:47;18.40;99.90
51486;DHT22;37565;51.352;6.412;2022-10-16T15:04:15;18.40;99.90
51486;DHT22;37565;51.352;6.412;2022-10-16T15:06:44;18.40;99.90
51486;DHT22;37565;51.352;6.412;2022-10-16T15:09:13;18.40;99.90
51486;DHT22;37565;51.352;6.412;2022-10-16T15:11:42;18.40;99.90
51486;DHT22;37565;51.352;6.412;2022-10-16T15:14:11;18.40;99.90
51486;DHT22;37565;51.352;6.412;2022-10-16T15:16:45;18.50;99.90
51486;DHT22;37565;51.352;6.412;2022-10-16T15:19:13;18.40;99.90
51486;DHT22;37565;51.352;6.412;2022-10-16T15:21:41;18.50;99.90
51486;DHT22;37565;51.352;6.412;2022-10-16T15:24:13;18.50;99.90
51486;DHT22;37565;51.352;6.412;2022-10-16T15:26:47;18.50;99.90
51486;DHT22;37565;51.352;6.412;2022-10-16T15:29:16;18.40;99.90
51486;DHT22;37565;51.352;6.412;2022-10-16T15:31:44;18.50;99.90
51486;DHT22;37565;51.352;6.412;2022-10-16T15:34:15;18.50;99.90
51486;DHT22;37565;51.352;6.412;2022-10-16T15:36:45;18.50;99.90
51486;DHT22;37565;51.352;6.412;2022-10-16T15:39:15;18.40;99.90
51486;DHT22;37565;51.352;6.412;2022-10-16T15:41:45;18.50;99.90
51486;DHT22;37565;51.352;6.412;2022-10-16T15:44:17;18.50;99.90
51486;DHT22;37565;51.352;6.412;2022-10-16T15:46:45;18.50;99.90
51486;DHT22;37565;51.352;6.412;2022-10-16T15:49:13;18.50;99.90
51486;DHT22;37565;51.352;6.412;2022-10-16T15:51:41;18.50;99.90
51486;DHT22;37565;51.352;6.412;2022-10-16T15:54:09;18.40;99.90
51486;DHT22;37565;51.352;6.412;2022-10-16T15:56:39;18.50;99.90
51486;DHT22;37565;51.352;6.412;2022-10-16T15:59:07;18.40;99.90
51486;DHT22;37565;51.352;6.412;2022-10-16T16:01:35;18.50;99.90
51486;DHT22;37565;51.352;6.412;2022-10-16T16:04:03;18.40;99.90